createdAt,value
2023-02-21T00:00:31.759Z,100.00
2023-02-21T00:02:58.464Z,100.00
2023-02-21T00:05:25.311Z,100.00
2023-02-21T00:07:52.047Z,100.00
2023-02-21T00:10:18.803Z,100.00
2023-02-21T00:12:47.421Z,100.00
2023-02-21T00:15:14.090Z,100.00
2023-02-21T00:17:40.785Z,100.00
2023-02-21T00:20:08.190Z,100.00
2023-02-21T00:22:34.954Z,100.00
2023-02-21T00:25:01.604Z,100.00
2023-02-21T00:27:28.440Z,100.00
2023-02-21T00:29:56.540Z,100.00
2023-02-21T00:32:23.295Z,100.00
2023-02-21T00:34:50.003Z,100.00
2023-02-21T00:37:16.659Z,100.00
2023-02-21T00:39:43.382Z,100.00
2023-02-21T00:42:10.029Z,100.00
2023-02-21T00:44:36.765Z,100.00
2023-02-21T00:47:04.869Z,100.00
2023-02-21T00:49:31.564Z,100.00
2023-02-21T00:51:58.213Z,100.00
2023-02-21T00:54:24.872Z,100.00
2023-02-21T00:56:51.601Z,100.00
2023-02-21T00:59:18.285Z,100.00
2023-02-21T01:01:45.124Z,100.00
2023-02-21T01:04:13.295Z,100.00
2023-02-21T01:06:40.066Z,100.00
2023-02-21T01:09:06.743Z,100.00
2023-02-21T01:11:33.592Z,100.00
2023-02-21T01:14:00.451Z,100.00
2023-02-21T01:16:28.605Z,100.00
2023-02-21T01:18:55.306Z,100.00
2023-02-21T01:21:23.375Z,100.00
2023-02-21T01:23:50.082Z,100.00
2023-02-21T01:26:17.082Z,100.00
2023-02-21T01:28:43.809Z,100.00
2023-02-21T01:31:10.604Z,100.00
2023-02-21T01:33:38.985Z,100.00
2023-02-21T01:36:06.302Z,100.00
2023-02-21T01:38:35.135Z,100.00
2023-02-21T01:41:01.874Z,100.00
2023-02-21T01:43:29.180Z,100.00
2023-02-21T01:45:55.941Z,100.00
2023-02-21T01:48:24.184Z,100.00
2023-02-21T01:50:52.639Z,100.00
2023-02-21T01:53:22.797Z,100.00
2023-02-21T01:55:51.163Z,100.00
2023-02-21T01:58:21.356Z,100.00
2023-02-21T02:00:48.028Z,100.00
2023-02-21T02:03:17.385Z,100.00
2023-02-21T02:05:47.694Z,100.00
2023-02-21T02:08:16.984Z,100.00
2023-02-21T02:10:45.590Z,100.00
2023-02-21T02:13:29.632Z,100.00
2023-02-21T02:16:02.950Z,100.00
2023-02-21T02:18:47.307Z,100.00
2023-02-21T02:22:02.878Z,100.00
2023-02-21T02:25:00.736Z,100.00
2023-02-21T02:27:57.384Z,100.00
2023-02-21T02:30:53.226Z,100.00
2023-02-21T02:34:02.418Z,100.00
2023-02-21T02:36:38.253Z,100.00
2023-02-21T02:39:18.854Z,100.00
2023-02-21T02:41:53.401Z,100.00
2023-02-21T02:44:26.909Z,100.00
2023-02-21T02:46:56.515Z,100.00
2023-02-21T02:49:25.276Z,100.00
2023-02-21T02:51:53.562Z,100.00
2023-02-21T02:54:20.935Z,100.00
2023-02-21T02:56:48.722Z,100.00
2023-02-21T02:59:20.079Z,100.00
2023-02-21T03:01:59.532Z,100.00
2023-02-21T03:04:58.817Z,100.00
2023-02-21T03:07:36.466Z,100.00
2023-02-21T03:10:12.782Z,100.00
2023-02-21T03:12:47.285Z,100.00
2023-02-21T03:15:19.506Z,100.00
2023-02-21T03:17:53.635Z,100.00
2023-02-21T03:20:22.085Z,100.00
2023-02-21T03:22:52.804Z,100.00
2023-02-21T03:25:22.526Z,100.00
2023-02-21T03:27:50.088Z,100.00
2023-02-21T03:30:18.236Z,100.00
2023-02-21T03:32:47.761Z,100.00
2023-02-21T03:35:15.196Z,100.00
2023-02-21T03:37:43.921Z,100.00
2023-02-21T03:40:16.472Z,100.00
2023-02-21T03:42:43.332Z,100.00
2023-02-21T03:45:10.071Z,100.00
2023-02-21T03:47:36.760Z,100.00
2023-02-21T03:50:03.957Z,100.00
2023-02-21T03:52:30.662Z,100.00
2023-02-21T03:54:57.522Z,100.00
2023-02-21T03:57:25.750Z,100.00
2023-02-21T03:59:52.724Z,100.00
2023-02-21T04:02:19.867Z,100.00
2023-02-21T04:04:46.654Z,100.00
2023-02-21T04:07:13.555Z,100.00
2023-02-21T04:09:40.344Z,100.00
2023-02-21T04:12:07.424Z,100.00
2023-02-21T04:14:35.809Z,100.00
2023-02-21T04:17:02.718Z,100.00
2023-02-21T04:19:29.477Z,100.00
2023-02-21T04:21:56.285Z,100.00
2023-02-21T04:24:23.299Z,100.00
2023-02-21T04:26:50.044Z,100.00
2023-02-21T04:29:16.936Z,100.00
2023-02-21T04:31:45.397Z,100.00
2023-02-21T04:34:12.574Z,100.00
2023-02-21T04:36:39.705Z,100.00
2023-02-21T04:39:07.524Z,100.00
2023-02-21T04:41:34.510Z,100.00
2023-02-21T04:44:01.298Z,100.00
2023-02-21T04:46:28.017Z,100.00
2023-02-21T04:48:56.227Z,100.00
2023-02-21T04:51:24.589Z,100.00
2023-02-21T04:53:52.329Z,100.00
2023-02-21T04:56:20.794Z,100.00
2023-02-21T04:58:47.861Z,100.00
2023-02-21T05:01:15.757Z,100.00
2023-02-21T05:03:42.751Z,100.00
2023-02-21T05:06:11.243Z,100.00
2023-02-21T05:08:37.953Z,100.00
2023-02-21T05:11:05.000Z,100.00
2023-02-21T05:13:31.729Z,100.00
2023-02-21T05:15:58.489Z,100.00
2023-02-21T05:18:25.365Z,100.00
2023-02-21T05:20:52.333Z,100.00
2023-02-21T05:23:20.476Z,100.00
2023-02-21T05:25:47.447Z,100.00
2023-02-21T05:28:14.202Z,100.00
2023-02-21T05:30:41.771Z,100.00
2023-02-21T05:33:08.581Z,100.00
2023-02-21T05:35:35.353Z,100.00
2023-02-21T05:38:02.084Z,100.00
2023-02-21T05:40:30.408Z,100.00
2023-02-21T05:42:57.182Z,100.00
2023-02-21T05:45:23.991Z,100.00
2023-02-21T05:47:50.781Z,100.00
2023-02-21T05:50:17.696Z,100.00
2023-02-21T05:52:44.565Z,100.00
2023-02-21T05:55:11.882Z,100.00
2023-02-21T05:57:40.341Z,100.00
2023-02-21T06:00:08.684Z,100.00
2023-02-21T06:02:35.448Z,100.00
2023-02-21T06:05:02.236Z,100.00
2023-02-21T06:07:28.933Z,100.00
2023-02-21T06:09:55.649Z,100.00
2023-02-21T06:12:22.383Z,100.00
2023-02-21T06:14:50.546Z,100.00
2023-02-21T06:17:17.314Z,100.00
2023-02-21T06:19:44.185Z,100.00
2023-02-21T06:22:10.820Z,100.00
2023-02-21T06:24:37.973Z,100.00
2023-02-21T06:27:04.846Z,100.00
2023-02-21T06:29:31.770Z,100.00
2023-02-21T06:32:01.223Z,100.00
2023-02-21T06:34:28.532Z,100.00
2023-02-21T06:36:55.995Z,100.00
2023-02-21T06:39:23.005Z,100.00
2023-02-21T06:41:50.350Z,100.00
2023-02-21T06:44:17.410Z,100.00
2023-02-21T06:46:44.172Z,100.00
2023-02-21T06:49:12.427Z,100.00
2023-02-21T06:51:40.874Z,100.00
2023-02-21T06:54:08.032Z,100.00
2023-02-21T06:56:34.873Z,100.00
2023-02-21T06:59:01.924Z,100.00
2023-02-21T07:01:30.147Z,100.00
2023-02-21T07:03:58.518Z,100.00
2023-02-21T07:06:29.275Z,100.00
2023-02-21T07:08:56.593Z,100.00
2023-02-21T07:11:23.367Z,100.00
2023-02-21T07:13:50.792Z,100.00
2023-02-21T07:16:17.672Z,100.00
2023-02-21T07:18:44.548Z,100.00
2023-02-21T07:21:11.387Z,100.00
2023-02-21T07:23:39.616Z,100.00
2023-02-21T07:26:06.490Z,100.00
2023-02-21T07:28:33.221Z,100.00
2023-02-21T07:30:59.987Z,100.00
2023-02-21T07:33:26.843Z,100.00
2023-02-21T07:35:53.688Z,100.00
2023-02-21T07:38:21.190Z,100.00
2023-02-21T07:41:07.143Z,100.00
2023-02-21T07:43:35.232Z,100.00
2023-02-21T07:46:02.131Z,100.00
2023-02-21T07:48:29.030Z,100.00
2023-02-21T07:50:58.208Z,100.00
2023-02-21T07:53:27.944Z,100.00
2023-02-21T07:55:54.706Z,100.00
2023-02-21T07:58:28.839Z,100.00
2023-02-21T08:00:57.471Z,100.00
2023-02-21T08:03:24.345Z,100.00
2023-02-21T08:05:51.184Z,100.00
2023-02-21T08:08:20.351Z,100.00
2023-02-21T08:10:47.171Z,100.00
2023-02-21T08:13:15.669Z,100.00
2023-02-21T08:15:44.082Z,100.00
2023-02-21T08:18:16.003Z,100.00
2023-02-21T08:20:42.870Z,100.00
2023-02-21T08:23:09.734Z,100.00
2023-02-21T08:25:36.495Z,100.00
2023-02-21T08:28:03.255Z,100.00
2023-02-21T08:30:36.810Z,100.00
2023-02-21T08:33:05.254Z,100.00
2023-02-21T08:35:44.593Z,100.00
2023-02-21T08:38:11.361Z,100.00
2023-02-21T08:40:38.135Z,100.00
2023-02-21T08:43:05.060Z,100.00
2023-02-21T08:45:32.641Z,100.00
2023-02-21T08:47:59.512Z,100.00
2023-02-21T08:50:28.686Z,100.00
2023-02-21T08:52:56.555Z,100.00
2023-02-21T08:55:26.341Z,100.00
2023-02-21T08:57:54.203Z,100.00
2023-02-21T09:00:23.614Z,100.00
2023-02-21T09:02:50.919Z,100.00
2023-02-21T09:05:20.781Z,100.00
2023-02-21T09:07:50.285Z,100.00
2023-02-21T09:10:17.210Z,100.00
2023-02-21T09:12:52.053Z,100.00
2023-02-21T09:15:20.952Z,100.00
2023-02-21T09:17:51.301Z,100.00
2023-02-21T09:20:48.238Z,100.00
2023-02-21T09:23:32.157Z,100.00
2023-02-21T09:26:06.481Z,100.00
2023-02-21T09:28:36.802Z,100.00
2023-02-21T09:31:05.045Z,100.00
2023-02-21T09:33:33.940Z,100.00
2023-02-21T09:36:02.708Z,100.00
2023-02-21T09:38:33.125Z,100.00
2023-02-21T09:41:02.506Z,100.00
2023-02-21T09:43:35.917Z,100.00
2023-02-21T09:46:07.764Z,100.00
2023-02-21T09:48:34.949Z,100.00
2023-02-21T09:51:06.029Z,100.00
2023-02-21T09:53:37.079Z,100.00
2023-02-21T09:56:26.666Z,100.00
2023-02-21T09:58:54.145Z,100.00
2023-02-21T10:01:29.603Z,100.00
2023-02-21T10:04:08.062Z,100.00
2023-02-21T10:06:43.346Z,100.00
2023-02-21T10:09:29.199Z,100.00
2023-02-21T10:12:10.260Z,100.00
2023-02-21T10:14:54.405Z,100.00
2023-02-21T10:17:32.387Z,100.00
2023-02-21T10:22:53.987Z,100.00
2023-02-21T10:25:32.304Z,100.00
2023-02-21T10:28:38.976Z,100.00
2023-02-21T10:31:21.417Z,100.00
2023-02-21T10:34:19.654Z,100.00
2023-02-21T10:36:52.285Z,100.00
2023-02-21T10:39:21.368Z,100.00
2023-02-21T10:42:00.004Z,100.00
2023-02-21T10:44:32.557Z,100.00
2023-02-21T10:47:04.200Z,100.00
2023-02-21T10:49:36.742Z,100.00
2023-02-21T10:52:15.853Z,100.00
2023-02-21T10:54:59.257Z,100.00
2023-02-21T10:57:30.953Z,100.00
2023-02-21T11:00:01.921Z,100.00
2023-02-21T11:02:33.391Z,100.00
2023-02-21T11:05:13.438Z,100.00
2023-02-21T11:07:41.732Z,100.00
2023-02-21T11:10:29.765Z,100.00
2023-02-21T11:13:05.424Z,100.00
2023-02-21T11:15:32.571Z,100.00
2023-02-21T11:18:12.317Z,100.00
2023-02-21T11:20:40.229Z,100.00
2023-02-21T11:23:21.627Z,100.00
2023-02-21T11:25:48.987Z,100.00
2023-02-21T11:28:22.690Z,100.00
2023-02-21T11:31:06.934Z,100.00
2023-02-21T11:33:37.532Z,100.00
2023-02-21T11:36:12.282Z,100.00
2023-02-21T11:38:41.150Z,100.00
2023-02-21T11:41:17.258Z,100.00
2023-02-21T11:43:48.429Z,100.00
2023-02-21T11:46:20.272Z,100.00
2023-02-21T11:48:57.656Z,100.00
2023-02-21T11:51:37.441Z,100.00
2023-02-21T11:54:05.375Z,100.00
2023-02-21T11:56:45.079Z,100.00
2023-02-21T11:59:24.111Z,100.00
2023-02-21T12:02:07.665Z,100.00
2023-02-21T12:04:54.830Z,100.00
2023-02-21T12:07:30.380Z,100.00
2023-02-21T12:10:03.400Z,100.00
2023-02-21T12:12:45.607Z,100.00
2023-02-21T12:15:22.501Z,100.00
2023-02-21T12:18:03.467Z,100.00
2023-02-21T12:21:03.316Z,100.00
2023-02-21T12:23:40.510Z,100.00
2023-02-21T12:26:21.435Z,100.00
2023-02-21T12:28:59.564Z,100.00
2023-02-21T12:31:40.205Z,100.00
2023-02-21T12:34:22.967Z,100.00
2023-02-21T12:37:03.911Z,100.00
2023-02-21T12:39:45.837Z,100.00
2023-02-21T12:42:37.358Z,100.00
2023-02-21T12:45:23.331Z,100.00
2023-02-21T12:47:58.387Z,100.00
2023-02-21T12:50:32.254Z,100.00
2023-02-21T12:53:03.258Z,100.00
2023-02-21T12:55:34.273Z,100.00
2023-02-21T12:58:10.024Z,100.00
2023-02-21T13:00:41.736Z,100.00
2023-02-21T13:03:31.008Z,98.17
2023-02-21T13:06:02.698Z,100.00
2023-02-21T13:08:34.319Z,100.00
2023-02-21T13:11:13.280Z,100.00
2023-02-21T13:13:52.798Z,98.25
2023-02-21T13:16:20.731Z,100.00
2023-02-21T13:18:54.068Z,98.78
2023-02-21T13:21:36.561Z,97.81
2023-02-21T13:24:39.938Z,97.25
2023-02-21T13:27:50.495Z,97.89
2023-02-21T13:30:22.552Z,97.33
2023-02-21T13:32:54.953Z,98.89
2023-02-21T13:35:32.567Z,98.31
2023-02-21T13:38:01.067Z,99.77
2023-02-21T13:40:38.735Z,98.52
2023-02-21T13:43:10.944Z,96.56
2023-02-21T13:48:41.837Z,97.41
2023-02-21T13:51:44.661Z,95.70
2023-02-21T13:54:56.676Z,95.33
2023-02-21T13:57:31.496Z,94.25
2023-02-21T13:59:58.385Z,97.30
2023-02-21T14:02:29.628Z,97.31
2023-02-21T14:05:03.674Z,95.68
2023-02-21T14:07:50.124Z,93.41
2023-02-21T14:10:32.121Z,93.51
2023-02-21T14:13:03.020Z,93.53
2023-02-21T14:15:38.892Z,96.07
2023-02-21T14:18:14.160Z,93.47
2023-02-21T14:20:41.660Z,93.73
2023-02-21T14:23:15.427Z,93.95
2023-02-21T14:25:42.166Z,95.04
2023-02-21T14:28:50.651Z,92.98
2023-02-21T14:31:47.497Z,94.95
2023-02-21T14:34:21.242Z,94.14
2023-02-21T14:36:51.316Z,94.37
2023-02-21T14:39:19.323Z,94.54
2023-02-21T14:42:00.862Z,93.90
2023-02-21T14:44:35.895Z,93.99
2023-02-21T14:47:36.541Z,95.51
2023-02-21T14:50:31.589Z,95.75
2023-02-21T14:53:51.951Z,96.49
2023-02-21T14:56:51.239Z,94.54
2023-02-21T14:59:32.611Z,96.16
2023-02-21T15:02:13.678Z,95.03
2023-02-21T15:04:46.504Z,94.27
2023-02-21T15:07:20.458Z,94.02
2023-02-21T15:10:12.193Z,92.67
2023-02-21T15:12:44.008Z,95.08
2023-02-21T15:15:20.470Z,93.88
2023-02-21T15:17:57.614Z,93.10
2023-02-21T15:20:25.572Z,93.67
2023-02-21T15:22:59.688Z,94.35
2023-02-21T15:25:26.457Z,93.69
2023-02-21T15:28:06.849Z,94.45
2023-02-21T15:30:36.881Z,92.82
2023-02-21T15:33:20.712Z,93.00
2023-02-21T15:35:51.527Z,94.71
2023-02-21T15:38:28.869Z,96.44
2023-02-21T15:41:06.011Z,94.99
2023-02-21T15:43:43.027Z,95.11
2023-02-21T15:46:16.415Z,94.93
2023-02-21T15:48:43.402Z,95.41
2023-02-21T15:51:13.400Z,94.78
2023-02-21T15:53:41.669Z,94.39
2023-02-21T15:56:22.328Z,94.59
2023-02-21T15:59:12.508Z,96.19
2023-02-21T16:01:39.923Z,95.09
2023-02-21T16:04:19.512Z,96.36
2023-02-21T16:06:52.632Z,96.03
2023-02-21T16:09:25.500Z,97.11
2023-02-21T16:11:55.722Z,97.55
2023-02-21T16:14:34.514Z,97.12
2023-02-21T16:17:12.212Z,98.31
2023-02-21T16:19:41.961Z,97.68
2023-02-21T16:22:14.020Z,98.61
2023-02-21T16:24:42.174Z,98.88
2023-02-21T16:27:11.678Z,99.34
2023-02-21T16:29:38.308Z,99.57
2023-02-21T16:32:05.880Z,99.61
2023-02-21T16:34:34.338Z,100.00
2023-02-21T16:37:03.541Z,100.00
2023-02-21T16:39:30.460Z,100.00
2023-02-21T16:41:58.841Z,100.00
2023-02-21T16:44:27.558Z,100.00
2023-02-21T16:46:54.486Z,100.00
2023-02-21T16:49:21.354Z,100.00
2023-02-21T16:51:48.373Z,100.00
2023-02-21T16:54:15.678Z,100.00
2023-02-21T16:56:46.708Z,100.00
2023-02-21T16:59:17.213Z,100.00
2023-02-21T17:01:44.270Z,100.00
2023-02-21T17:04:16.754Z,100.00
2023-02-21T17:06:46.573Z,100.00
2023-02-21T17:09:19.142Z,100.00
2023-02-21T17:11:48.563Z,100.00
2023-02-21T17:14:16.829Z,100.00
2023-02-21T17:16:43.599Z,100.00
2023-02-21T17:19:10.975Z,100.00
2023-02-21T17:21:38.822Z,100.00
2023-02-21T17:24:05.889Z,100.00
2023-02-21T17:26:32.695Z,100.00
2023-02-21T17:28:59.521Z,100.00
2023-02-21T17:31:27.854Z,100.00
2023-02-21T17:33:57.828Z,100.00
2023-02-21T17:36:26.675Z,100.00
2023-02-21T17:38:53.983Z,100.00
2023-02-21T17:41:21.563Z,100.00
2023-02-21T17:43:48.959Z,100.00
2023-02-21T17:46:17.891Z,100.00
2023-02-21T17:48:46.887Z,100.00
2023-02-21T17:51:23.828Z,100.00
2023-02-21T17:53:51.528Z,100.00
2023-02-21T17:56:20.505Z,100.00
2023-02-21T17:58:50.405Z,100.00
2023-02-21T18:01:18.114Z,100.00
2023-02-21T18:03:46.821Z,100.00
2023-02-21T18:06:15.105Z,100.00
2023-02-21T18:08:42.451Z,100.00
2023-02-21T18:11:10.621Z,100.00
2023-02-21T18:13:37.456Z,100.00
2023-02-21T18:16:04.689Z,100.00
2023-02-21T18:18:31.549Z,100.00
2023-02-21T18:21:00.168Z,100.00
2023-02-21T18:23:26.976Z,100.00
2023-02-21T18:25:53.782Z,100.00
2023-02-21T18:28:21.247Z,100.00
2023-02-21T18:30:48.068Z,100.00
2023-02-21T18:33:14.907Z,100.00
2023-02-21T18:35:41.700Z,100.00
2023-02-21T18:38:09.951Z,100.00
2023-02-21T18:40:36.779Z,100.00
2023-02-21T18:43:05.091Z,100.00
2023-02-21T18:45:31.936Z,100.00
2023-02-21T18:48:00.410Z,100.00
2023-02-21T18:50:27.415Z,100.00
2023-02-21T18:52:54.213Z,100.00
2023-02-21T18:55:22.401Z,100.00
2023-02-21T18:57:49.158Z,100.00
2023-02-21T19:00:17.835Z,100.00
2023-02-21T19:02:44.700Z,100.00
2023-02-21T19:05:15.286Z,100.00
2023-02-21T19:07:42.349Z,100.00
2023-02-21T19:10:09.690Z,100.00
2023-02-21T19:12:38.111Z,100.00
2023-02-21T19:15:05.959Z,100.00
2023-02-21T19:17:32.863Z,100.00
2023-02-21T19:20:00.088Z,100.00
2023-02-21T19:22:27.038Z,100.00
2023-02-21T19:24:53.882Z,100.00
2023-02-21T19:27:20.646Z,100.00
2023-02-21T19:29:48.894Z,100.00
2023-02-21T19:32:15.888Z,100.00
2023-02-21T19:34:42.707Z,100.00
2023-02-21T19:37:09.485Z,100.00
2023-02-21T19:39:36.315Z,100.00
2023-02-21T19:42:03.035Z,100.00
2023-02-21T19:44:30.436Z,100.00
2023-02-21T19:46:58.858Z,100.00
2023-02-21T19:49:25.709Z,100.00
2023-02-21T19:51:54.105Z,100.00
2023-02-21T19:54:22.807Z,100.00
2023-02-21T19:56:49.608Z,100.00
2023-02-21T19:59:17.092Z,100.00
2023-02-21T20:01:44.536Z,100.00
2023-02-21T20:04:12.676Z,100.00
2023-02-21T20:06:39.406Z,100.00
2023-02-21T20:09:08.575Z,100.00
2023-02-21T20:11:35.889Z,100.00
2023-02-21T20:14:02.544Z,100.00
2023-02-21T20:16:29.280Z,100.00
2023-02-21T20:18:56.277Z,100.00
2023-02-21T20:21:27.875Z,100.00
2023-02-21T20:23:55.157Z,100.00
2023-02-21T20:26:22.357Z,100.00
2023-02-21T20:28:50.145Z,100.00
2023-02-21T20:31:17.684Z,100.00
2023-02-21T20:33:44.552Z,100.00
2023-02-21T20:36:11.263Z,100.00
2023-02-21T20:38:39.733Z,100.00
2023-02-21T20:41:08.391Z,100.00
2023-02-21T20:43:35.277Z,100.00
2023-02-21T20:46:02.078Z,100.00
2023-02-21T20:48:28.899Z,100.00
2023-02-21T20:50:55.759Z,100.00
2023-02-21T20:53:22.644Z,100.00
2023-02-21T20:55:50.931Z,100.00
2023-02-21T20:58:17.686Z,100.00
2023-02-21T21:00:44.396Z,100.00
2023-02-21T21:03:11.088Z,100.00
2023-02-21T21:05:37.737Z,100.00
2023-02-21T21:08:04.658Z,100.00
2023-02-21T21:10:31.365Z,100.00
2023-02-21T21:12:59.614Z,100.00
2023-02-21T21:15:26.590Z,100.00
2023-02-21T21:17:53.388Z,100.00
2023-02-21T21:20:22.761Z,100.00
2023-02-21T21:22:50.204Z,100.00
2023-02-21T21:25:17.376Z,100.00
2023-02-21T21:27:44.509Z,100.00
2023-02-21T21:30:14.553Z,100.00
2023-02-21T21:32:41.595Z,100.00
2023-02-21T21:35:09.010Z,100.00
2023-02-21T21:37:36.095Z,100.00
2023-02-21T21:40:03.652Z,100.00
2023-02-21T21:42:30.553Z,100.00
2023-02-21T21:44:57.441Z,100.00
2023-02-21T21:47:27.956Z,100.00
2023-02-21T21:49:55.208Z,100.00
2023-02-21T21:52:22.646Z,100.00
2023-02-21T21:54:50.267Z,100.00
2023-02-21T21:57:18.750Z,100.00
2023-02-21T21:59:49.150Z,100.00
2023-02-21T22:02:16.490Z,100.00
2023-02-21T22:04:45.301Z,100.00
2023-02-21T22:07:13.726Z,100.00
2023-02-21T22:09:40.505Z,100.00
2023-02-21T22:12:08.132Z,100.00
2023-02-21T22:14:35.365Z,100.00
2023-02-21T22:17:02.568Z,100.00
2023-02-21T22:19:29.387Z,100.00
2023-02-21T22:21:57.524Z,100.00
2023-02-21T22:24:25.358Z,100.00
2023-02-21T22:26:53.116Z,100.00
2023-02-21T22:29:20.556Z,100.00
2023-02-21T22:31:48.698Z,100.00
2023-02-21T22:34:16.947Z,100.00
2023-02-21T22:36:45.430Z,100.00
2023-02-21T22:39:13.480Z,100.00
2023-02-21T22:41:40.128Z,100.00
2023-02-21T22:44:07.148Z,100.00
2023-02-21T22:46:40.291Z,100.00
2023-02-21T22:49:07.003Z,100.00
2023-02-21T22:51:33.704Z,100.00
2023-02-21T22:54:00.473Z,100.00
2023-02-21T22:56:29.804Z,100.00
2023-02-21T22:58:57.944Z,100.00
2023-02-21T23:01:26.329Z,100.00
2023-02-21T23:03:53.774Z,100.00
2023-02-21T23:06:20.775Z,100.00
2023-02-21T23:08:48.613Z,100.00
2023-02-21T23:11:18.820Z,100.00
2023-02-21T23:13:47.839Z,100.00
2023-02-21T23:16:19.430Z,100.00
2023-02-21T23:18:46.323Z,100.00
2023-02-21T23:21:12.966Z,100.00
2023-02-21T23:23:39.733Z,100.00
2023-02-21T23:26:06.434Z,100.00
2023-02-21T23:28:33.153Z,100.00
2023-02-21T23:31:01.281Z,100.00
2023-02-21T23:33:30.598Z,100.00
2023-02-21T23:35:57.593Z,100.00
2023-02-21T23:38:26.160Z,100.00
2023-02-21T23:40:54.615Z,100.00
2023-02-21T23:43:21.916Z,100.00
2023-02-21T23:45:48.585Z,100.00
2023-02-21T23:48:16.781Z,100.00
2023-02-21T23:50:45.287Z,100.00
2023-02-21T23:53:13.206Z,100.00
2023-02-21T23:55:39.928Z,100.00
2023-02-21T23:58:06.882Z,100.00
